sensor_id;sensor_type;location;lat;lon;timestamp;P1;durP1;ratioP1;P2;durP2;ratioP2
67164;SDS011;54093;50.014;19.984;2023-07-31T00:06:11;2.00;;;1.90;;
67164;SDS011;54093;50.014;19.984;2023-07-31T00:15:32;2.13;;;2.03;;
67164;SDS011;54093;50.014;19.984;2023-07-31T00:24:53;1.85;;;1.80;;
67164;SDS011;54093;50.014;19.984;2023-07-31T00:34:14;2.58;;;1.40;;
67164;SDS011;54093;50.014;19.984;2023-07-31T00:43:35;1.70;;;1.67;;
67164;SDS011;54093;50.014;19.984;2023-07-31T00:52:56;2.08;;;1.92;;
67164;SDS011;54093;50.014;19.984;2023-07-31T01:02:17;2.75;;;2.20;;
67164;SDS011;54093;50.014;19.984;2023-07-31T01:11:41;2.17;;;2.08;;
67164;SDS011;54093;50.014;19.984;2023-07-31T01:30:53;1.88;;;1.77;;
67164;SDS011;54093;50.014;19.984;2023-07-31T01:40:18;2.00;;;1.90;;
67164;SDS011;54093;50.014;19.984;2023-07-31T01:49:39;2.10;;;1.90;;
67164;SDS011;54093;50.014;19.984;2023-07-31T01:59:00;1.80;;;1.70;;
67164;SDS011;54093;50.014;19.984;2023-07-31T02:08:21;1.77;;;1.67;;
67164;SDS011;54093;50.014;19.984;2023-07-31T02:17:41;1.83;;;1.73;;
67164;SDS011;54093;50.014;19.984;2023-07-31T02:27:02;5.30;;;1.83;;
67164;SDS011;54093;50.014;19.984;2023-07-31T02:36:23;1.73;;;1.70;;
67164;SDS011;54093;50.014;19.984;2023-07-31T02:45:44;1.90;;;1.80;;
67164;SDS011;54093;50.014;19.984;2023-07-31T02:55:05;1.92;;;1.83;;
67164;SDS011;54093;50.014;19.984;2023-07-31T03:04:27;3.95;;;2.10;;
67164;SDS011;54093;50.014;19.984;2023-07-31T03:13:47;1.83;;;1.73;;
67164;SDS011;54093;50.014;19.984;2023-07-31T03:23:08;2.20;;;2.10;;
67164;SDS011;54093;50.014;19.984;2023-07-31T03:32:29;1.90;;;1.83;;
67164;SDS011;54093;50.014;19.984;2023-07-31T03:41:50;1.95;;;1.85;;
67164;SDS011;54093;50.014;19.984;2023-07-31T03:51:11;2.45;;;1.98;;
67164;SDS011;54093;50.014;19.984;2023-07-31T04:00:32;6.85;;;2.42;;
67164;SDS011;54093;50.014;19.984;2023-07-31T04:09:52;2.00;;;1.90;;
67164;SDS011;54093;50.014;19.984;2023-07-31T04:19:13;2.05;;;1.98;;
67164;SDS011;54093;50.014;19.984;2023-07-31T04:28:36;1.83;;;1.73;;
67164;SDS011;54093;50.014;19.984;2023-07-31T04:37:57;1.90;;;1.80;;
67164;SDS011;54093;50.014;19.984;2023-07-31T04:47:19;7.03;;;2.38;;
67164;SDS011;54093;50.014;19.984;2023-07-31T04:56:40;2.40;;;2.20;;
67164;SDS011;54093;50.014;19.984;2023-07-31T05:06:01;11.45;;;2.47;;
67164;SDS011;54093;50.014;19.984;2023-07-31T05:15:22;3.92;;;2.40;;
67164;SDS011;54093;50.014;19.984;2023-07-31T05:24:43;6.22;;;2.90;;
67164;SDS011;54093;50.014;19.984;2023-07-31T05:34:04;3.53;;;3.30;;
67164;SDS011;54093;50.014;19.984;2023-07-31T05:43:25;3.85;;;3.55;;
67164;SDS011;54093;50.014;19.984;2023-07-31T05:52:46;3.38;;;3.17;;
67164;SDS011;54093;50.014;19.984;2023-07-31T06:02:07;3.65;;;3.33;;
67164;SDS011;54093;50.014;19.984;2023-07-31T06:11:28;3.97;;;3.78;;
67164;SDS011;54093;50.014;19.984;2023-07-31T06:20:49;3.83;;;3.63;;
67164;SDS011;54093;50.014;19.984;2023-07-31T06:30:13;5.33;;;4.23;;
67164;SDS011;54093;50.014;19.984;2023-07-31T06:39:34;7.68;;;3.28;;
67164;SDS011;54093;50.014;19.984;2023-07-31T06:48:55;3.05;;;2.95;;
67164;SDS011;54093;50.014;19.984;2023-07-31T06:58:16;4.35;;;3.22;;
67164;SDS011;54093;50.014;19.984;2023-07-31T07:07:37;3.15;;;2.95;;
67164;SDS011;54093;50.014;19.984;2023-07-31T07:16:58;3.13;;;2.92;;
67164;SDS011;54093;50.014;19.984;2023-07-31T07:26:19;2.80;;;2.70;;
67164;SDS011;54093;50.014;19.984;2023-07-31T07:35:40;2.47;;;2.25;;
67164;SDS011;54093;50.014;19.984;2023-07-31T07:45:01;6.78;;;2.83;;
67164;SDS011;54093;50.014;19.984;2023-07-31T07:54:22;2.25;;;2.15;;
67164;SDS011;54093;50.014;19.984;2023-07-31T08:03:44;2.05;;;1.92;;
67164;SDS011;54093;50.014;19.984;2023-07-31T08:13:04;4.15;;;2.00;;
67164;SDS011;54093;50.014;19.984;2023-07-31T08:22:25;2.88;;;2.38;;
67164;SDS011;54093;50.014;19.984;2023-07-31T08:31:46;2.28;;;2.08;;
67164;SDS011;54093;50.014;19.984;2023-07-31T08:41:07;2.90;;;1.77;;
67164;SDS011;54093;50.014;19.984;2023-07-31T08:50:28;2.40;;;2.00;;
67164;SDS011;54093;50.014;19.984;2023-07-31T08:59:49;2.28;;;2.08;;
67164;SDS011;54093;50.014;19.984;2023-07-31T09:09:11;2.78;;;2.08;;
67164;SDS011;54093;50.014;19.984;2023-07-31T09:18:37;3.58;;;1.83;;
67164;SDS011;54093;50.014;19.984;2023-07-31T09:28:13;2.67;;;1.83;;
67164;SDS011;54093;50.014;19.984;2023-07-31T09:37:34;2.28;;;2.08;;
67164;SDS011;54093;50.014;19.984;2023-07-31T09:46:55;2.38;;;1.60;;
67164;SDS011;54093;50.014;19.984;2023-07-31T09:56:16;3.67;;;1.77;;
67164;SDS011;54093;50.014;19.984;2023-07-31T10:05:42;3.38;;;1.48;;
67164;SDS011;54093;50.014;19.984;2023-07-31T10:15:10;1.55;;;1.45;;
67164;SDS011;54093;50.014;19.984;2023-07-31T10:24:32;1.48;;;1.48;;
67164;SDS011;54093;50.014;19.984;2023-07-31T10:34:12;5.68;;;1.77;;
67164;SDS011;54093;50.014;19.984;2023-07-31T10:43:33;2.13;;;1.58;;
67164;SDS011;54093;50.014;19.984;2023-07-31T10:52:55;1.80;;;1.70;;
67164;SDS011;54093;50.014;19.984;2023-07-31T11:02:24;1.60;;;1.50;;
67164;SDS011;54093;50.014;19.984;2023-07-31T11:11:47;2.33;;;1.50;;
67164;SDS011;54093;50.014;19.984;2023-07-31T11:21:13;1.63;;;1.50;;
67164;SDS011;54093;50.014;19.984;2023-07-31T11:30:38;2.80;;;1.70;;
67164;SDS011;54093;50.014;19.984;2023-07-31T11:40:01;2.60;;;2.17;;
67164;SDS011;54093;50.014;19.984;2023-07-31T11:49:22;1.92;;;1.50;;
67164;SDS011;54093;50.014;19.984;2023-07-31T11:58:44;2.92;;;1.40;;
67164;SDS011;54093;50.014;19.984;2023-07-31T12:08:10;2.47;;;1.83;;
67164;SDS011;54093;50.014;19.984;2023-07-31T12:17:36;2.00;;;1.83;;
67164;SDS011;54093;50.014;19.984;2023-07-31T12:26:57;1.50;;;1.40;;
67164;SDS011;54093;50.014;19.984;2023-07-31T12:36:22;1.60;;;1.50;;
67164;SDS011;54093;50.014;19.984;2023-07-31T12:45:44;6.30;;;1.30;;
67164;SDS011;54093;50.014;19.984;2023-07-31T12:55:05;1.60;;;1.42;;
67164;SDS011;54093;50.014;19.984;2023-07-31T13:04:27;3.35;;;1.27;;
67164;SDS011;54093;50.014;19.984;2023-07-31T13:13:47;1.75;;;1.65;;
67164;SDS011;54093;50.014;19.984;2023-07-31T13:23:08;2.08;;;1.80;;
67164;SDS011;54093;50.014;19.984;2023-07-31T13:32:29;1.77;;;1.65;;
67164;SDS011;54093;50.014;19.984;2023-07-31T13:41:55;1.70;;;1.60;;
67164;SDS011;54093;50.014;19.984;2023-07-31T13:51:33;9.13;;;2.50;;
67164;SDS011;54093;50.014;19.984;2023-07-31T14:00:54;1.58;;;1.48;;
67164;SDS011;54093;50.014;19.984;2023-07-31T14:10:15;2.22;;;2.13;;
67164;SDS011;54093;50.014;19.984;2023-07-31T14:19:36;3.10;;;1.60;;
67164;SDS011;54093;50.014;19.984;2023-07-31T14:28:57;1.80;;;1.70;;
67164;SDS011;54093;50.014;19.984;2023-07-31T14:38:18;1.65;;;1.17;;
67164;SDS011;54093;50.014;19.984;2023-07-31T14:47:39;2.90;;;1.38;;
67164;SDS011;54093;50.014;19.984;2023-07-31T14:56:59;1.60;;;1.40;;
67164;SDS011;54093;50.014;19.984;2023-07-31T15:06:20;1.52;;;1.40;;
67164;SDS011;54093;50.014;19.984;2023-07-31T15:15:41;2.60;;;1.10;;
67164;SDS011;54093;50.014;19.984;2023-07-31T15:25:02;2.65;;;1.80;;
67164;SDS011;54093;50.014;19.984;2023-07-31T15:34:23;1.35;;;1.25;;
67164;SDS011;54093;50.014;19.984;2023-07-31T15:43:45;1.40;;;1.30;;
67164;SDS011;54093;50.014;19.984;2023-07-31T15:53:06;1.40;;;1.30;;
67164;SDS011;54093;50.014;19.984;2023-07-31T16:02:27;2.67;;;1.40;;
67164;SDS011;54093;50.014;19.984;2023-07-31T16:11:48;1.48;;;1.30;;
67164;SDS011;54093;50.014;19.984;2023-07-31T16:21:08;2.03;;;1.52;;
67164;SDS011;54093;50.014;19.984;2023-07-31T16:30:32;4.97;;;1.73;;
67164;SDS011;54093;50.014;19.984;2023-07-31T16:39:53;1.27;;;1.20;;
67164;SDS011;54093;50.014;19.984;2023-07-31T16:49:14;1.52;;;1.42;;
67164;SDS011;54093;50.014;19.984;2023-07-31T16:58:34;1.35;;;1.25;;
67164;SDS011;54093;50.014;19.984;2023-07-31T17:07:55;1.48;;;1.38;;
67164;SDS011;54093;50.014;19.984;2023-07-31T17:17:16;2.22;;;1.38;;
67164;SDS011;54093;50.014;19.984;2023-07-31T17:26:37;2.78;;;1.20;;
67164;SDS011;54093;50.014;19.984;2023-07-31T17:35:58;1.95;;;1.63;;
67164;SDS011;54093;50.014;19.984;2023-07-31T17:45:19;2.53;;;1.35;;
67164;SDS011;54093;50.014;19.984;2023-07-31T17:54:41;2.22;;;1.58;;
67164;SDS011;54093;50.014;19.984;2023-07-31T18:04:02;5.75;;;1.60;;
67164;SDS011;54093;50.014;19.984;2023-07-31T18:13:24;1.60;;;1.50;;
67164;SDS011;54093;50.014;19.984;2023-07-31T18:22:45;2.38;;;1.83;;
67164;SDS011;54093;50.014;19.984;2023-07-31T18:32:06;6.70;;;2.13;;
67164;SDS011;54093;50.014;19.984;2023-07-31T18:41:29;3.42;;;1.92;;
67164;SDS011;54093;50.014;19.984;2023-07-31T18:50:50;4.32;;;2.08;;
67164;SDS011;54093;50.014;19.984;2023-07-31T19:00:12;4.60;;;2.72;;
67164;SDS011;54093;50.014;19.984;2023-07-31T19:09:33;5.05;;;2.17;;
67164;SDS011;54093;50.014;19.984;2023-07-31T19:18:56;2.67;;;2.47;;
67164;SDS011;54093;50.014;19.984;2023-07-31T19:28:18;2.63;;;2.00;;
67164;SDS011;54093;50.014;19.984;2023-07-31T19:37:39;3.80;;;2.50;;
67164;SDS011;54093;50.014;19.984;2023-07-31T19:47:00;2.50;;;2.33;;
67164;SDS011;54093;50.014;19.984;2023-07-31T19:56:20;2.15;;;2.00;;
67164;SDS011;54093;50.014;19.984;2023-07-31T20:05:41;2.83;;;1.95;;
67164;SDS011;54093;50.014;19.984;2023-07-31T20:15:03;2.72;;;2.53;;
67164;SDS011;54093;50.014;19.984;2023-07-31T20:24:25;3.30;;;1.98;;
67164;SDS011;54093;50.014;19.984;2023-07-31T20:33:46;1.77;;;1.67;;
67164;SDS011;54093;50.014;19.984;2023-07-31T20:43:09;1.85;;;1.73;;
67164;SDS011;54093;50.014;19.984;2023-07-31T20:52:36;2.10;;;1.92;;
67164;SDS011;54093;50.014;19.984;2023-07-31T21:01:56;3.75;;;2.70;;
67164;SDS011;54093;50.014;19.984;2023-07-31T21:11:17;2.75;;;2.60;;
67164;SDS011;54093;50.014;19.984;2023-07-31T21:20:38;2.90;;;2.70;;
67164;SDS011;54093;50.014;19.984;2023-07-31T21:29:59;3.28;;;3.08;;
67164;SDS011;54093;50.014;19.984;2023-07-31T21:39:20;3.00;;;2.67;;
67164;SDS011;54093;50.014;19.984;2023-07-31T21:48:41;5.03;;;2.60;;
67164;SDS011;54093;50.014;19.984;2023-07-31T21:58:02;2.90;;;2.70;;
67164;SDS011;54093;50.014;19.984;2023-07-31T22:07:23;4.13;;;3.75;;
67164;SDS011;54093;50.014;19.984;2023-07-31T22:16:44;3.00;;;2.60;;
67164;SDS011;54093;50.014;19.984;2023-07-31T22:26:05;3.90;;;2.70;;
67164;SDS011;54093;50.014;19.984;2023-07-31T22:35:26;2.20;;;2.10;;
67164;SDS011;54093;50.014;19.984;2023-07-31T22:44:47;2.00;;;1.90;;
67164;SDS011;54093;50.014;19.984;2023-07-31T22:54:07;2.30;;;2.20;;
67164;SDS011;54093;50.014;19.984;2023-07-31T23:03:28;2.25;;;2.05;;
67164;SDS011;54093;50.014;19.984;2023-07-31T23:12:49;3.55;;;2.05;;
67164;SDS011;54093;50.014;19.984;2023-07-31T23:22:10;2.50;;;2.35;;
67164;SDS011;54093;50.014;19.984;2023-07-31T23:31:31;3.85;;;2.47;;
67164;SDS011;54093;50.014;19.984;2023-07-31T23:40:52;3.00;;;2.20;;
67164;SDS011;54093;50.014;19.984;2023-07-31T23:50:13;5.03;;;2.55;;
67164;SDS011;54093;50.014;19.984;2023-07-31T23:59:34;1.98;;;1.88;;
